Terminal Aerodrome Forecast
Issued by NWS Paducah, KY

Home | Current Version | Previous Version | Text Only | Print | Product List | Glossary On
Versions: 1 2 3 4 5 6 7 8 9 10 11 12 13 14 15 16 17 18 19 20 21
000
FTUS43 KPAH 161323 AAB
TAFPAH
TAF AMD
KPAH 161323Z 1613/1712 08004KT 2SM BR OVC002
      TEMPO 1614/1617 2SM -TSRA OVC005CB
     FM161800 17009KT 2SM -SHRA BR OVC005
     FM162300 17012KT 3SM -SHRA BR VCTS OVC010CB
      TEMPO 1701/1705 2SM -TSRA BR OVC008CB
     FM170900 23010KT 4SM BR OVC012=

USA.gov is the U.S. government's official web portal to all federal, state and local government web resources and services.